Estación Meteorológica Peña el Pijo (Robertgarden) [ 12/17/17 01:38:31 CET ]

Fecha Hora Presion(HPa) Temp (°C) Humedad % Rocio (°C) Viento ( m/s) Direccion Lluvia 1Hora(mm) Lluvia 24H(mm) LLuvia Total(mm)
2017-Dec-11 01:01:49 992.500 10.1 63 3.3 4.7 NW   2.07 2.07
2017-Dec-11 02:02:17 990.400 10.4 63 3.6 3.0 N   2.07 2.07
2017-Dec-11 03:10:06 989.000 10.4 62 3.4 3.5 WNW 1.03 3.10 3.10
2017-Dec-11 04:10:11 987.600 10.2 65 3.9 3.1 WNW 0.51 3.62 3.62
2017-Dec-11 05:03:10 985.600 10.4 61 3.2 3.1 NW   3.62 3.62
2017-Dec-11 06:01:42 982.900 11.2 63 4.4 2.4 WNW   3.62 3.62
2017-Dec-11 07:01:53 982.100 12.3 57 4.0 5.0 ENE 8.80 12.43 12.43
2017-Dec-11 08:01:52 983.200 11.5 62 4.4 2.6 WNW 2.07 14.50 14.50
2017-Dec-11 09:01:53 986.500 9.6 70 4.4     1.03 15.54 15.54
2017-Dec-11 10:01:58 988.700 4.9 74 0.6       15.54 15.54
2017-Dec-11 11:01:56 988.600 4.1 78 0.6     0.51 16.05 16.05
2017-Dec-11 12:01:43 988.600 4.9 79 1.5     0.51 16.57 16.57
2017-Dec-11 13:01:38 988.800 4.8 77 1.1       15.54 16.57
2017-Dec-11 14:01:49 988.700 5.4 76 1.5 1.5 N   15.54 16.57
2017-Dec-11 15:01:45 989.000 5.5 72 0.9       14.50 16.57
2017-Dec-11 16:01:43 989.600 4.6 74 0.3 0.6 WNW   14.50 16.57
2017-Dec-11 17:01:42 990.400 4.3 74 0.0       14.50 16.57
2017-Dec-11 18:01:40 991.700 3.6 75 -0.4       14.50 16.57
2017-Dec-11 19:01:42 993.300 3.8 76 -0.1       14.50 16.57
2017-Dec-11 20:01:39 993.400 3.4 73 -1.0       14.50 16.57
2017-Dec-11 21:01:34 993.800 3.0 74 -1.2       14.50 16.57
2017-Dec-11 22:01:54 993.600 2.9 77 -0.7 2.3 NW   14.50 16.57
2017-Dec-11 23:01:38 994.100 2.9 77 -0.7       14.50 16.57

Temperatura Máxima:12°    Temperatura Mínima:
Presión Máxima:994.100 Hpa    Presión Mínima:982.100 Hpa


Volver